Santa Cruz Airport
SBSC : now visible

Airfield :











YOU CAN JOIN US ON...

 
LOGIN :

Register | Disclaimer

   EN    FR    IT 

 









Legend :    VFR   Marginal VFR   IFR   Intensive IFR   Very Intensive IFR
Visi :
Ceiling :
>= 8 km
>= 3000ft
5 to 8 km
1000 to 3000 ft
1500m to 5 km
500 to 1000 ft
800 to 1500m
200 to 500 ft
< 800m
< 200 ft
Symbols :   Thunderstorms  Fog  Heavy snow  Heavy precipitations  Wind > 20 kt






- Airport Elevation : 10 ft
- IATA code : SNZ


SBSC - Santa Cruz

CURRENT METAR :
  • 090700Z 30003KT 5000 BR SCT005 OVC015 19/18 Q1016

EXPIRED METARs :
  • 090600Z 28004KT 5000 BR SCT005 OVC015 19/18 Q1016
  • 090500Z 29004KT 5000 BR SCT005 OVC015 20/19 Q1016
  • 090400Z 00000KT 5000 BR SCT005 OVC015 20/19 Q1016

TAF TAF SBSC
Valid from the 09 at 06:00 until the 09 at 18:00 UTC


090300Z 0906/0918 00000KT 5000 BR BKN005 OVC020 TN21/0909Z TX24/0917Z
BECMG 0913/0914 28005KT 6000 SHRA SCT012
BECMG 0914/0916 25005KT 8000 SCT020
BECMG 0916/0918 8000 SHRA SCT025 RMK PAY



MET'MAP, your aeronautical weather chart ! - Copyright ORBIFLY December 2007 - Disclaimer

ORBIFLY MET'MAP TEAM :

Programming & Development : Alexandra Zaïnal
Concept & original design : Baudouin d'Aumeries
Assistance for programming : Marc-Olivier Méhu
Technical & hardware support : Manuel Goepfert

Contact : metmap@orbifly.com




SOURCES & CREDITS :

   NOAA       Earth
Advisory